Time;durP1;ratioP1;P1;durP2;ratioP2;P2;SDS_P1;SDS_P2;PMS_P1;PMS_P2;Temp;Humidity;BMP_temperature;BMP_pressure;BME280_temperature;BME280_humidity;BME280_pressure;Samples;Min_cycle;Max_cycle;Signal;HPM_P1;HPM_P2
2021/06/09 00:08:41;;;;;;;14.2;7;;;;;;;13.49;100;98748.77;;;;
2021/06/09 00:18:40;;;;;;;8.1;6.4;;;;;;;13.57;100;98746.02;;;;
2021/06/09 00:28:39;;;;;;;9.2;6;;;;;;;13.47;100;98761.81;;;;
2021/06/09 00:38:38;;;;;;;11.8;6.3;;;;;;;13.5;100;98737.59;;;;
2021/06/09 00:48:37;;;;;;;12;6.7;;;;;;;13.57;100;98743.31;;;;
2021/06/09 00:58:36;;;;;;;8.5;5.7;;;;;;;13.6;100;98755.44;;;;
2021/06/09 01:08:36;;;;;;;9.4;6.2;;;;;;;13.63;100;98743.16;;;;
2021/06/09 01:18:33;;;;;;;12.9;6.6;;;;;;;13.69;100;98742.65;;;;
2021/06/09 01:28:32;;;;;;;12.2;7.9;;;;;;;13.64;100;98740.1;;;;
2021/06/09 01:38:31;;;;;;;10.8;8.3;;;;;;;13.53;100;98742.39;;;;
2021/06/09 01:48:30;;;;;;;10.7;7.1;;;;;;;13.5;100;98745.72;;;;
2021/06/09 01:58:29;;;;;;;14.2;8.5;;;;;;;13.46;100;98749.41;;;;
2021/06/09 02:08:29;;;;;;;13;8.8;;;;;;;13.38;100;98745.59;;;;
2021/06/09 02:18:27;;;;;;;12;8.8;;;;;;;13.32;100;98752.31;;;;
2021/06/09 02:28:25;;;;;;;11.7;8.4;;;;;;;13.34;100;98741.94;;;;
2021/06/09 02:38:24;;;;;;;9.6;8.6;;;;;;;13.31;100;98747.2;;;;
2021/06/09 02:48:23;;;;;;;14;9.3;;;;;;;13.34;100;98743.84;;;;
2021/06/09 02:58:22;;;;;;;12.7;9.5;;;;;;;13.4;100;98743.36;;;;
2021/06/09 03:08:21;;;;;;;15.9;10.1;;;;;;;13.57;100;98756.08;;;;
2021/06/09 03:18:20;;;;;;;13.2;9.4;;;;;;;13.93;100;98767.27;;;;
2021/06/09 03:28:19;;;;;;;13.2;10;;;;;;;14.13;100;98771.95;;;;
2021/06/09 03:38:18;;;;;;;16.2;10.9;;;;;;;14.22;100;98771.13;;;;
2021/06/09 03:48:16;;;;;;;18.2;10.6;;;;;;;14.37;100;98778.75;;;;
2021/06/09 03:58:15;;;;;;;12.7;10.8;;;;;;;14.56;100;98781.81;;;;
2021/06/09 04:08:14;;;;;;;17.3;11.3;;;;;;;14.71;100;98786.67;;;;
2021/06/09 04:18:13;;;;;;;14.4;10.8;;;;;;;14.99;100;98790.44;;;;
2021/06/09 04:28:12;;;;;;;12.6;10.8;;;;;;;15.29;100;98787.66;;;;
2021/06/09 04:38:11;;;;;;;15.6;12.3;;;;;;;15.69;100;98782.52;;;;
2021/06/09 04:48:11;;;;;;;16.1;11.4;;;;;;;16.23;100;98788.59;;;;
2021/06/09 04:58:10;;;;;;;12.3;11;;;;;;;16.82;100;98789.72;;;;
2021/06/09 05:08:09;;;;;;;12.8;11.5;;;;;;;17.04;100;98797.36;;;;
2021/06/09 05:18:08;;;;;;;15;11.9;;;;;;;17.37;99.80078;98804.53;;;;
2021/06/09 05:28:08;;;;;;;14.8;10.9;;;;;;;17.95;96.97852;98801.08;;;;
2021/06/09 05:38:07;;;;;;;21.3;13.5;;;;;;;18.48;93.68848;98804.34;;;;
2021/06/09 05:48:07;;;;;;;14.7;12.3;;;;;;;18.73;93.10059;98805.75;;;;
2021/06/09 05:58:06;;;;;;;16.8;10.9;;;;;;;18.68;92.40234;98805.22;;;;
2021/06/09 06:08:06;;;;;;;17.5;12;;;;;;;19.13;92.26563;98807.38;;;;
2021/06/09 06:18:05;;;;;;;17.7;11.6;;;;;;;19.04;87.87012;98823.99;;;;
2021/06/09 06:28:05;;;;;;;17.8;11.5;;;;;;;19.36;85.91406;98827.41;;;;
2021/06/09 06:38:05;;;;;;;15.6;14;;;;;;;19.56;86.7002;98826.28;;;;
2021/06/09 06:48:04;;;;;;;16.5;11.4;;;;;;;19.85;87.42188;98828.42;;;;
2021/06/09 06:58:04;;;;;;;19.3;10.3;;;;;;;20.1;83.16992;98832.38;;;;
2021/06/09 07:08:04;;;;;;;12.3;10.7;;;;;;;20.45;83.68457;98845.91;;;;
2021/06/09 07:18:03;;;;;;;14.9;8.6;;;;;;;20.76;80.36426;98847.57;;;;
2021/06/09 07:28:03;;;;;;;17.7;10.7;;;;;;;21;79.66699;98849.89;;;;
2021/06/09 07:38:03;;;;;;;12.4;9.8;;;;;;;21.17;76.24219;98845.88;;;;
2021/06/09 07:48:03;;;;;;;14.1;9.9;;;;;;;21.43;79.00391;98850.5;;;;
2021/06/09 07:58:03;;;;;;;10.1;8.1;;;;;;;21.36;76.27539;98851.2;;;;
2021/06/09 08:08:03;;;;;;;13.9;9.5;;;;;;;21.72;76.86719;98851.64;;;;
2021/06/09 08:18:04;;;;;;;10.4;7.5;;;;;;;22.06;75.69922;98851.27;;;;
2021/06/09 08:28:03;;;;;;;12;8.4;;;;;;;22.08;74.32324;98843.44;;;;
2021/06/09 08:38:03;;;;;;;15.7;9.9;;;;;;;22.64;73.69629;98845.1;;;;
2021/06/09 08:48:03;;;;;;;12.1;8.2;;;;;;;22.81;73.45703;98849.97;;;;
2021/06/09 08:58:03;;;;;;;11.8;7.7;;;;;;;24.05;73.01758;98839.57;;;;
2021/06/09 09:08:04;;;;;;;9.7;6.6;;;;;;;24.03;65.12109;98839.16;;;;
2021/06/09 09:18:04;;;;;;;12.1;7.5;;;;;;;24.61;67.01465;98846.34;;;;
2021/06/09 09:28:05;;;;;;;5.4;3.7;;;;;;;24.65;56.43164;98842.38;;;;
2021/06/09 09:38:05;;;;;;;5.6;3.1;;;;;;;24.41;56.62402;98837.66;;;;
2021/06/09 09:48:06;;;;;;;7.2;3.5;;;;;;;24.79;52.17773;98828.59;;;;
2021/06/09 09:58:06;;;;;;;6.1;2.5;;;;;;;25.13;53.5332;98820.66;;;;
2021/06/09 10:08:06;;;;;;;5.4;2.8;;;;;;;25.3;52.04883;98821.81;;;;
2021/06/09 10:18:07;;;;;;;4.4;2.8;;;;;;;24.94;51.71387;98818.36;;;;
2021/06/09 10:28:07;;;;;;;4.7;3;;;;;;;25.18;48.55566;98811.98;;;;
2021/06/09 10:38:08;;;;;;;5.5;2.6;;;;;;;25.57;46.0293;98819.36;;;;
2021/06/09 10:48:09;;;;;;;6;2.5;;;;;;;25.48;42.16699;98811.47;;;;
2021/06/09 10:58:09;;;;;;;8.8;2.6;;;;;;;25.98;42.86328;98793.48;;;;
2021/06/09 11:08:09;;;;;;;5.4;2.7;;;;;;;26.76;41.24609;98790.09;;;;
2021/06/09 11:18:12;;;;;;;5.5;2.6;;;;;;;26.9;42.4541;98778.91;;;;
2021/06/09 11:28:11;;;;;;;5.2;2.4;;;;;;;26.5;42.02539;98765.86;;;;
2021/06/09 11:38:11;;;;;;;4.8;2.2;;;;;;;27.11;40.01074;98754.99;;;;
2021/06/09 11:48:12;;;;;;;4.5;2.6;;;;;;;27.26;40.7832;98751.63;;;;
2021/06/09 11:58:14;;;;;;;4.6;2.2;;;;;;;27.66;41.7793;98744.41;;;;
2021/06/09 12:08:14;;;;;;;6.7;3.4;;;;;;;27.54;43.11816;98728.34;;;;
2021/06/09 12:18:14;;;;;;;6.9;2.8;;;;;;;27.62;41.26563;98731.8;;;;
2021/06/09 12:28:17;;;;;;;4.7;2.4;;;;;;;27.76;39.59473;98713;;;;
2021/06/09 12:38:16;;;;;;;7.2;3.1;;;;;;;27.81;41.80469;98709.73;;;;
2021/06/09 12:48:17;;;;;;;5.2;2.7;;;;;;;27.99;42.61523;98701.14;;;;
2021/06/09 12:58:20;;;;;;;5.8;3;;;;;;;28.68;38.33203;98703.14;;;;
2021/06/09 13:08:18;;;;;;;7.2;2.9;;;;;;;28.54;38.68848;98695.05;;;;
2021/06/09 13:18:19;;;;;;;4.3;2.4;;;;;;;28.62;38.79004;98682.63;;;;
2021/06/09 13:28:22;;;;;;;5.2;2.8;;;;;;;29.03;38.76563;98690.55;;;;
2021/06/09 13:38:21;;;;;;;11.9;5.3;;;;;;;27.34;44.09375;98686.67;;;;
2021/06/09 13:48:23;;;;;;;7;3.3;;;;;;;27.08;48.01563;98689.39;;;;
2021/06/09 13:58:22;;;;;;;7.8;4.7;;;;;;;26.19;52.50488;98679.3;;;;
2021/06/09 14:08:23;;;;;;;9.1;5;;;;;;;27.01;51.17383;98676.44;;;;
2021/06/09 14:18:24;;;;;;;7.7;5;;;;;;;26.81;49.17969;98672.7;;;;
2021/06/09 14:28:24;;;;;;;11.4;5;;;;;;;27.28;47.95508;98682.78;;;;
2021/06/09 14:38:25;;;;;;;6.2;4.2;;;;;;;26.76;49.58789;98665.64;;;;
2021/06/09 14:58:26;;;;;;;10;4.1;;;;;;;28.57;41.64844;98674.03;;;;
2021/06/09 15:08:27;;;;;;;5.9;3.2;;;;;;;28.81;41.99219;98689.44;;;;
2021/06/09 15:18:28;;;;;;;5.7;3;;;;;;;26.16;48.94336;98698.64;;;;
2021/06/09 15:28:28;;;;;;;7;3.6;;;;;;;24.98;51.86035;98695.83;;;;
2021/06/09 15:38:29;;;;;;;6.1;3.4;;;;;;;24.69;51.53125;98671.48;;;;
2021/06/09 15:48:30;;;;;;;3.6;1.7;;;;;;;24.34;49.06348;98673.15;;;;
2021/06/09 15:58:31;;;;;;;3.4;1.7;;;;;;;24.2;49.64746;98675.92;;;;
2021/06/09 16:08:31;;;;;;;17.2;12.1;;;;;;;23.65;51.49609;98667.26;;;;
2021/06/09 16:18:32;;;;;;;10;2.7;;;;;;;22.96;54.66699;98667.48;;;;
2021/06/09 16:28:32;;;;;;;5.6;2.9;;;;;;;22.36;60.52734;98667.14;;;;
2021/06/09 16:38:31;;;;;;;6.3;4.1;;;;;;;22.71;63.54395;98674.03;;;;
2021/06/09 16:48:32;;;;;;;7.8;3.7;;;;;;;27.24;50.71484;98684.05;;;;
2021/06/09 17:08:31;;;;;;;13.9;9.7;;;;;;;27.38;46.43945;98686.63;;;;
2021/06/09 17:18:32;;;;;;;16.7;14.1;;;;;;;25.98;51.8916;98684.98;;;;
2021/06/09 17:28:32;;;;;;;18;11.6;;;;;;;25;55.17188;98681.63;;;;
2021/06/09 17:38:33;;;;;;;9;5.3;;;;;;;25.86;56.34766;98691.77;;;;
2021/06/09 17:48:33;;;;;;;8.3;5.5;;;;;;;26.39;53.86035;98702.39;;;;
2021/06/09 17:58:34;;;;;;;8.6;4.8;;;;;;;26.31;55.21484;98700.88;;;;
2021/06/09 18:08:35;;;;;;;9;6.5;;;;;;;25.03;59.24707;98700.92;;;;
2021/06/09 18:18:35;;;;;;;15.8;6.8;;;;;;;23.86;62.28223;98705.02;;;;
2021/06/09 18:28:36;;;;;;;7.6;5;;;;;;;22.78;68.33887;98699.59;;;;
2021/06/09 18:38:36;;;;;;;14.1;6.6;;;;;;;21.89;72.49512;98709.14;;;;
2021/06/09 18:48:37;;;;;;;14.8;8.8;;;;;;;21.08;72.04004;98720.02;;;;
2021/06/09 18:58:37;;;;;;;10.3;6.6;;;;;;;20.48;78.86035;98723.91;;;;
2021/06/09 19:08:36;;;;;;;13.3;8;;;;;;;20.12;80.70801;98738.19;;;;
2021/06/09 19:18:35;;;;;;;7.1;6.4;;;;;;;19.88;85.33691;98742.89;;;;
2021/06/09 19:28:35;;;;;;;10.6;8.9;;;;;;;19.76;83.39355;98739.52;;;;
2021/06/09 19:38:36;;;;;;;11.6;7.6;;;;;;;19.53;83.97168;98753.19;;;;
2021/06/09 19:48:35;;;;;;;11.6;7.6;;;;;;;19.24;86.45508;98760.01;;;;
2021/06/09 19:58:34;;;;;;;10.5;8.3;;;;;;;19.05;88.72461;98763.52;;;;
2021/06/09 20:08:34;;;;;;;12.5;9.2;;;;;;;18.98;90.89648;98766.13;;;;
2021/06/09 20:18:34;;;;;;;13;9.5;;;;;;;18.95;95.14941;98780.48;;;;
2021/06/09 20:28:33;;;;;;;15.6;11;;;;;;;18.72;96.58496;98782.31;;;;
2021/06/09 20:38:33;;;;;;;15.4;13;;;;;;;18.55;100;98778.04;;;;
2021/06/09 20:48:32;;;;;;;17.2;12;;;;;;;18.39;100;98784.64;;;;
2021/06/09 20:58:32;;;;;;;17;13.4;;;;;;;18.16;100;98795.38;;;;
2021/06/09 21:08:31;;;;;;;14;11.9;;;;;;;17.78;100;98795.96;;;;
2021/06/09 21:18:31;;;;;;;15.9;11.8;;;;;;;17.43;100;98803.94;;;;
2021/06/09 21:28:31;;;;;;;17.3;11.3;;;;;;;17;100;98804.66;;;;
2021/06/09 21:38:31;;;;;;;13;10.3;;;;;;;16.6;100;98795.64;;;;
2021/06/09 21:48:29;;;;;;;13.5;8.2;;;;;;;16.27;100;98795.74;;;;
2021/06/09 21:58:28;;;;;;;12.9;8.1;;;;;;;15.93;100;98796.92;;;;
2021/06/09 22:08:27;;;;;;;11.2;8;;;;;;;15.55;100;98797.17;;;;
2021/06/09 22:18:28;;;;;;;15;9.1;;;;;;;15.35;100;98789.83;;;;
2021/06/09 22:28:26;;;;;;;10.1;7.2;;;;;;;15.12;100;98796.75;;;;
2021/06/09 22:38:25;;;;;;;8.4;6.4;;;;;;;14.82;100;98796;;;;
2021/06/09 22:48:26;;;;;;;10;7.3;;;;;;;14.52;100;98799.86;;;;
2021/06/09 22:58:24;;;;;;;11.7;7.5;;;;;;;14.22;100;98792.81;;;;
2021/06/09 23:08:22;;;;;;;10.4;8.1;;;;;;;14;100;98791.95;;;;
2021/06/09 23:18:21;;;;;;;12.6;7.6;;;;;;;13.78;100;98802.23;;;;
2021/06/09 23:28:20;;;;;;;9.4;6.9;;;;;;;13.48;100;98809.44;;;;
2021/06/09 23:38:19;;;;;;;20;8.5;;;;;;;13.26;100;98793.4;;;;
2021/06/09 23:48:22;;;;;;;8.1;6.1;;;;;;;13.09;100;98805;;;;
2021/06/09 23:58:17;;;;;;;12.1;6.9;;;;;;;13.07;100;98802.59;;;;
